createdAt,value
2022-08-24T00:02:02.090Z,100791.59
2022-08-24T00:04:32.110Z,100796.97
2022-08-24T00:07:02.293Z,100801.03
2022-08-24T00:09:32.049Z,100787.25
2022-08-24T00:11:59.709Z,100807.50
2022-08-24T00:14:27.193Z,100796.00
2022-08-24T00:16:54.822Z,100794.41
2022-08-24T00:19:22.458Z,100802.06
2022-08-24T00:21:50.573Z,100790.78
2022-08-24T00:24:18.669Z,100800.56
2022-08-24T00:26:46.431Z,100791.69
2022-08-24T00:29:15.531Z,100799.53
2022-08-24T00:31:43.573Z,100786.38
2022-08-24T00:34:13.378Z,100787.50
2022-08-24T00:36:42.445Z,100790.25
2022-08-24T00:39:12.644Z,100785.13
2022-08-24T00:41:45.381Z,100783.88
2022-08-24T00:44:14.255Z,100782.16
2022-08-24T00:46:48.334Z,100788.28
2022-08-24T00:49:24.802Z,100795.84
2022-08-24T00:52:08.668Z,100789.94
2022-08-24T00:54:46.066Z,100782.78
2022-08-24T00:57:17.702Z,100775.53
2022-08-24T00:59:55.617Z,100775.13
2022-08-24T01:02:31.603Z,100774.66
2022-08-24T01:05:02.978Z,100779.84
2022-08-24T01:07:34.375Z,100782.97
2022-08-24T01:10:08.568Z,100775.09
2022-08-24T01:12:38.155Z,100778.63
2022-08-24T01:15:07.889Z,100776.31
2022-08-24T01:17:55.660Z,100779.88
2022-08-24T01:20:26.321Z,100777.53
2022-08-24T01:23:21.746Z,100780.84
2022-08-24T01:25:50.142Z,100780.84
2022-08-24T01:28:21.751Z,100773.34
2022-08-24T01:30:55.768Z,100773.19
2022-08-24T01:33:30.145Z,100773.50
2022-08-24T01:36:28.148Z,100766.28
2022-08-24T01:39:01.477Z,100769.00
2022-08-24T01:41:29.447Z,100765.78
2022-08-24T01:43:59.121Z,100772.47
2022-08-24T01:46:28.817Z,100761.88
2022-08-24T01:48:58.376Z,100769.66
2022-08-24T01:51:30.371Z,100766.47
2022-08-24T01:54:00.922Z,100770.69
2022-08-24T01:56:29.436Z,100766.16
2022-08-24T01:58:59.653Z,100773.19
2022-08-24T02:01:30.635Z,100777.16
2022-08-24T02:04:02.523Z,100768.28
2022-08-24T02:06:30.353Z,100776.88
2022-08-24T02:08:57.978Z,100773.94
2022-08-24T02:11:29.207Z,100768.69
2022-08-24T02:13:56.801Z,100766.22
2022-08-24T02:16:24.687Z,100776.56
2022-08-24T02:18:52.256Z,100773.31
2022-08-24T02:21:22.361Z,100781.03
2022-08-24T02:23:50.414Z,100773.84
2022-08-24T02:26:18.722Z,100776.66
2022-08-24T02:28:46.253Z,100777.25
2022-08-24T02:31:17.615Z,100785.88
2022-08-24T02:33:46.040Z,100780.44
2022-08-24T02:36:25.639Z,100782.44
2022-08-24T02:38:56.172Z,100783.63
2022-08-24T02:41:25.718Z,100789.69
2022-08-24T02:43:56.798Z,100784.50
2022-08-24T02:46:28.268Z,100785.72
2022-08-24T02:49:10.984Z,100781.66
2022-08-24T02:51:44.621Z,100783.81
2022-08-24T02:54:19.709Z,100790.03
2022-08-24T02:56:50.239Z,100777.09
2022-08-24T02:59:18.341Z,100778.34
2022-08-24T03:01:47.050Z,100774.03
2022-08-24T03:04:18.712Z,100786.22
2022-08-24T03:06:48.463Z,100789.41
2022-08-24T03:09:17.803Z,100782.72
2022-08-24T03:11:45.760Z,100784.31
2022-08-24T03:14:14.460Z,100773.88
2022-08-24T03:16:42.602Z,100780.56
2022-08-24T03:19:12.863Z,100772.03
2022-08-24T03:21:42.947Z,100776.81
2022-08-24T03:24:11.984Z,100770.22
2022-08-24T03:26:44.055Z,100773.88
2022-08-24T03:29:15.952Z,100767.16
2022-08-24T03:31:45.001Z,100771.13
2022-08-24T03:34:13.764Z,100772.63
2022-08-24T03:36:48.031Z,100775.75
2022-08-24T03:39:17.597Z,100781.94
2022-08-24T03:41:46.896Z,100775.81
2022-08-24T03:44:14.632Z,100775.31
2022-08-24T03:46:42.339Z,100773.84
2022-08-24T03:49:10.421Z,100774.19
2022-08-24T03:51:39.144Z,100775.69
2022-08-24T03:54:09.878Z,100770.41
2022-08-24T03:56:38.071Z,100767.53
2022-08-24T03:59:09.860Z,100771.47
2022-08-24T04:01:43.353Z,100776.09
2022-08-24T04:04:11.125Z,100775.88
2022-08-24T04:06:40.484Z,100774.59
2022-08-24T04:09:08.350Z,100771.75
2022-08-24T04:11:41.565Z,100780.59
2022-08-24T04:14:20.313Z,100784.19
2022-08-24T04:16:58.926Z,100790.31
2022-08-24T04:19:36.451Z,100792.91
2022-08-24T04:22:04.327Z,100792.03
2022-08-24T04:24:32.116Z,100790.06
2022-08-24T04:26:59.815Z,100786.59
2022-08-24T04:29:27.554Z,100796.22
2022-08-24T04:31:55.944Z,100792.34
2022-08-24T04:34:24.313Z,100802.81
2022-08-24T04:36:53.541Z,100795.47
2022-08-24T04:39:24.539Z,100796.91
2022-08-24T04:42:12.326Z,100806.88
2022-08-24T04:44:41.826Z,100805.34
2022-08-24T04:47:13.048Z,100805.88
2022-08-24T04:49:40.661Z,100809.06
2022-08-24T04:52:08.602Z,100819.47
2022-08-24T04:54:38.856Z,100815.97
2022-08-24T04:57:13.463Z,100816.78
2022-08-24T04:59:44.010Z,100818.47
2022-08-24T05:02:16.135Z,100826.47
2022-08-24T05:04:48.389Z,100820.13
2022-08-24T05:07:18.660Z,100822.13
2022-08-24T05:09:46.203Z,100832.00
2022-08-24T05:12:16.714Z,100836.06
2022-08-24T05:14:55.435Z,100830.22
2022-08-24T05:17:23.445Z,100837.56
2022-08-24T05:19:51.024Z,100835.06
2022-08-24T05:22:19.402Z,100838.81
2022-08-24T05:24:51.189Z,100844.03
2022-08-24T05:27:19.504Z,100838.53
2022-08-24T05:29:47.707Z,100835.41
2022-08-24T05:32:17.758Z,100847.53
2022-08-24T05:34:45.446Z,100852.31
2022-08-24T05:37:13.069Z,100837.69
2022-08-24T05:40:16.133Z,100853.84
2022-08-24T05:42:48.543Z,100852.41
2022-08-24T05:45:19.043Z,100843.75
2022-08-24T05:47:46.713Z,100843.34
2022-08-24T05:50:37.534Z,100852.53
2022-08-24T05:53:05.626Z,100853.97
2022-08-24T05:55:33.536Z,100851.72
2022-08-24T05:58:04.277Z,100850.78
2022-08-24T06:00:33.579Z,100854.94
2022-08-24T06:03:01.240Z,100860.66
2022-08-24T06:05:29.074Z,100865.44
2022-08-24T06:07:57.947Z,100874.31
2022-08-24T06:10:36.721Z,100857.91
2022-08-24T06:13:06.287Z,100857.72
2022-08-24T06:15:35.613Z,100862.00
2022-08-24T06:18:04.659Z,100852.63
2022-08-24T06:20:34.057Z,100854.25
2022-08-24T06:23:03.731Z,100857.66
2022-08-24T08:03:13.239Z,100907.38
2022-08-24T08:22:12.592Z,100908.16
2022-08-24T08:39:52.489Z,100912.94
2022-08-24T09:32:42.893Z,100912.59
2022-08-24T10:28:25.286Z,100858.19
2022-08-24T10:31:03.176Z,100866.63
2022-08-24T10:33:49.111Z,100863.19
2022-08-24T10:36:52.170Z,100854.44
2022-08-24T10:39:43.802Z,100848.00
2022-08-24T10:43:05.411Z,100848.50
2022-08-24T10:50:20.473Z,100837.69
2022-08-24T10:53:21.701Z,100837.25
2022-08-24T10:56:00.542Z,100832.22
2022-08-24T10:58:49.010Z,100837.34
2022-08-24T11:01:32.632Z,100839.38
2022-08-24T11:04:11.131Z,100837.34
2022-08-24T11:07:08.693Z,100836.00
2022-08-24T11:09:55.925Z,100833.81
2022-08-24T12:31:24.519Z,100802.59
2022-08-24T15:09:16.620Z,100747.63
2022-08-24T15:11:45.577Z,100737.28
2022-08-24T15:18:25.574Z,100747.91
2022-08-24T15:37:37.975Z,100727.72
2022-08-24T16:01:04.304Z,100731.34
2022-08-24T16:08:57.221Z,100733.66
2022-08-24T16:11:57.522Z,100731.06
2022-08-24T16:15:12.858Z,100723.03
2022-08-24T16:19:17.838Z,100731.63
2022-08-24T16:21:15.817Z,100723.63
2022-08-24T16:24:01.496Z,100723.09
2022-08-24T16:27:17.549Z,100735.47
2022-08-24T16:37:56.146Z,100729.16
2022-08-24T16:41:02.294Z,100729.03
2022-08-24T16:45:10.618Z,100731.47
2022-08-24T16:48:03.937Z,100721.69
2022-08-24T16:50:39.708Z,100724.28
2022-08-24T16:53:30.860Z,100729.34
2022-08-24T16:56:23.258Z,100729.19
2022-08-24T17:01:50.417Z,100732.22
2022-08-24T17:04:18.114Z,100727.28
2022-08-24T17:06:48.382Z,100734.44
2022-08-24T17:09:24.498Z,100732.72
2022-08-24T17:16:07.295Z,100730.31
2022-08-24T17:18:37.395Z,100727.63
2022-08-24T17:21:07.577Z,100738.34
2022-08-24T17:23:36.170Z,100723.03
2022-08-24T17:26:10.244Z,100728.84
2022-08-24T17:28:54.646Z,100730.69
2022-08-24T17:31:24.842Z,100734.41
2022-08-24T17:33:53.285Z,100738.53
2022-08-24T17:36:30.425Z,100740.72
2022-08-24T18:06:00.072Z,100750.25
2022-08-24T18:17:25.305Z,100741.28
